KELK/ELK METAR and TAF weather

Enter ICAO airport designator
Station Type Date Time Source
KELK METAR 2019/04/21 22:15 UTC NOAA

KELK 212215Z AUTO 17015G20KT 10SM CLR 28/14 A2975 RMK AO2 T02760135


Station Type Date Time Source
KELK Decoded METAR 2019/04/21 22:15 UTC NOAA

Station name not available
Apr 21, 2019 - 06:15 PM EDT / 2019.04.21 2215 UTC
Wind: from the S (170 degrees) at 17 MPH (15 KT) gusting to 23 MPH (20 KT):0
Visibility: 10 mile(s):0
Sky conditions: clear
Temperature: 81.7 F (27.6 C)
Dew Point: 56.3 F (13.5 C)
Relative Humidity: 41%
Pressure (altimeter): 29.75 in. Hg (1007 hPa)
ob: KELK 212215Z AUTO 17015G20KT 10SM CLR 28/14 A2975 RMK AO2 T02760135
cycle: 22

Station Type Date Time Source
KELK TAF UTC NOAA

Error!

Example: see airport list